sensor_id;sensor_type;location;lat;lon;timestamp;pressure;altitude;pressure_sealevel;temperature;humidity
48053;BME280;33824;51.600;5.718;2023-04-08T00:00:21;102053.22;;;10.09;98.20
48053;BME280;33824;51.600;5.718;2023-04-08T00:03:07;102048.31;;;10.05;98.43
48053;BME280;33824;51.600;5.718;2023-04-08T00:05:33;102050.56;;;10.09;98.43
48053;BME280;33824;51.600;5.718;2023-04-08T00:07:58;102058.03;;;10.16;98.50
48053;BME280;33824;51.600;5.718;2023-04-08T00:10:24;102055.38;;;10.16;98.50
48053;BME280;33824;51.600;5.718;2023-04-08T00:12:53;102058.44;;;10.11;98.52
48053;BME280;33824;51.600;5.718;2023-04-08T00:15:20;102061.38;;;10.18;98.88
48053;BME280;33824;51.600;5.718;2023-04-08T00:17:45;102060.13;;;10.22;98.81
48053;BME280;33824;51.600;5.718;2023-04-08T00:20:12;102068.69;;;10.25;98.69
48053;BME280;33824;51.600;5.718;2023-04-08T00:22:37;102056.03;;;10.27;98.69
48053;BME280;33824;51.600;5.718;2023-04-08T00:25:06;102062.63;;;10.33;98.84
48053;BME280;33824;51.600;5.718;2023-04-08T00:27:33;102057.31;;;10.33;98.36
48053;BME280;33824;51.600;5.718;2023-04-08T00:29:59;102064.44;;;10.32;98.39
48053;BME280;33824;51.600;5.718;2023-04-08T00:32:26;102061.22;;;10.38;98.81
48053;BME280;33824;51.600;5.718;2023-04-08T00:34:52;102067.97;;;10.42;98.90
48053;BME280;33824;51.600;5.718;2023-04-08T00:37:18;102065.84;;;10.46;98.72
48053;BME280;33824;51.600;5.718;2023-04-08T00:39:43;102064.84;;;10.47;98.56
48053;BME280;33824;51.600;5.718;2023-04-08T00:42:09;102070.72;;;10.50;98.60
48053;BME280;33824;51.600;5.718;2023-04-08T00:44:35;102067.78;;;10.53;98.34
48053;BME280;33824;51.600;5.718;2023-04-08T00:47:03;102072.28;;;10.53;98.34
48053;BME280;33824;51.600;5.718;2023-04-08T00:49:30;102076.19;;;10.58;98.09
48053;BME280;33824;51.600;5.718;2023-04-08T00:51:57;102073.22;;;10.62;98.24
48053;BME280;33824;51.600;5.718;2023-04-08T00:54:23;102072.84;;;10.56;97.81
48053;BME280;33824;51.600;5.718;2023-04-08T00:56:48;102072.00;;;10.56;98.25
48053;BME280;33824;51.600;5.718;2023-04-08T00:59:16;102077.75;;;10.61;98.34
48053;BME280;33824;51.600;5.718;2023-04-08T01:01:50;102073.25;;;10.52;97.87
48053;BME280;33824;51.600;5.718;2023-04-08T01:04:28;102074.28;;;10.41;97.71
48053;BME280;33824;51.600;5.718;2023-04-08T01:07:04;102072.44;;;10.42;98.40
48053;BME280;33824;51.600;5.718;2023-04-08T01:09:34;102077.63;;;10.43;98.34
48053;BME280;33824;51.600;5.718;2023-04-08T01:12:05;102074.28;;;10.41;98.37
48053;BME280;33824;51.600;5.718;2023-04-08T01:14:37;102075.13;;;10.42;98.57
48053;BME280;33824;51.600;5.718;2023-04-08T01:17:04;102079.91;;;10.38;98.46
48053;BME280;33824;51.600;5.718;2023-04-08T01:19:37;102073.59;;;10.30;98.58
48053;BME280;33824;51.600;5.718;2023-04-08T01:22:28;102075.81;;;10.25;98.49
48053;BME280;33824;51.600;5.718;2023-04-08T01:25:04;102078.06;;;10.29;98.57
48053;BME280;33824;51.600;5.718;2023-04-08T01:27:33;102076.09;;;10.41;98.99
48053;BME280;33824;51.600;5.718;2023-04-08T01:30:01;102085.19;;;10.48;99.00
48053;BME280;33824;51.600;5.718;2023-04-08T01:32:28;102080.84;;;10.56;99.09
48053;BME280;33824;51.600;5.718;2023-04-08T01:34:55;102079.13;;;10.65;99.01
48053;BME280;33824;51.600;5.718;2023-04-08T01:37:22;102072.06;;;10.74;98.77
48053;BME280;33824;51.600;5.718;2023-04-08T01:39:51;102076.00;;;10.79;98.34
48053;BME280;33824;51.600;5.718;2023-04-08T01:42:16;102082.56;;;10.85;98.27
48053;BME280;33824;51.600;5.718;2023-04-08T01:44:42;102085.66;;;10.90;97.66
48053;BME280;33824;51.600;5.718;2023-04-08T01:47:10;102084.66;;;10.91;97.85
48053;BME280;33824;51.600;5.718;2023-04-08T01:49:37;102090.00;;;10.91;97.76
48053;BME280;33824;51.600;5.718;2023-04-08T01:52:04;102089.47;;;10.87;97.52
48053;BME280;33824;51.600;5.718;2023-04-08T01:54:31;102090.56;;;10.85;97.15
48053;BME280;33824;51.600;5.718;2023-04-08T01:56:58;102093.53;;;10.82;97.19
48053;BME280;33824;51.600;5.718;2023-04-08T01:59:28;102092.84;;;10.80;96.98
48053;BME280;33824;51.600;5.718;2023-04-08T02:01:55;102092.84;;;10.80;97.05
48053;BME280;33824;51.600;5.718;2023-04-08T02:04:21;102094.81;;;10.78;97.07
48053;BME280;33824;51.600;5.718;2023-04-08T02:06:47;102097.03;;;10.82;97.33
48053;BME280;33824;51.600;5.718;2023-04-08T02:09:13;102096.19;;;10.82;97.11
48053;BME280;33824;51.600;5.718;2023-04-08T02:11:38;102094.13;;;10.76;97.38
48053;BME280;33824;51.600;5.718;2023-04-08T02:14:04;102095.09;;;10.75;97.35
48053;BME280;33824;51.600;5.718;2023-04-08T02:16:49;102096.41;;;10.61;97.23
48053;BME280;33824;51.600;5.718;2023-04-08T02:19:23;102097.34;;;10.70;97.44
48053;BME280;33824;51.600;5.718;2023-04-08T02:21:56;102100.44;;;10.75;97.48
48053;BME280;33824;51.600;5.718;2023-04-08T02:24:45;102097.34;;;10.79;97.49
48053;BME280;33824;51.600;5.718;2023-04-08T02:27:11;102097.72;;;10.84;97.53
48053;BME280;33824;51.600;5.718;2023-04-08T02:29:39;102102.25;;;10.84;97.20
48053;BME280;33824;51.600;5.718;2023-04-08T02:32:07;102097.59;;;10.86;97.18
48053;BME280;33824;51.600;5.718;2023-04-08T02:34:36;102100.81;;;10.89;97.16
48053;BME280;33824;51.600;5.718;2023-04-08T02:37:03;102094.09;;;10.85;96.66
48053;BME280;33824;51.600;5.718;2023-04-08T02:39:30;102092.72;;;10.72;96.45
48053;BME280;33824;51.600;5.718;2023-04-08T02:41:56;102096.66;;;10.68;96.87
48053;BME280;33824;51.600;5.718;2023-04-08T02:44:22;102100.06;;;10.60;96.74
48053;BME280;33824;51.600;5.718;2023-04-08T02:46:48;102098.66;;;10.56;97.10
48053;BME280;33824;51.600;5.718;2023-04-08T02:49:13;102097.69;;;10.57;97.25
48053;BME280;33824;51.600;5.718;2023-04-08T02:51:39;102096.13;;;10.54;97.21
48053;BME280;33824;51.600;5.718;2023-04-08T02:54:04;102096.41;;;10.51;97.35
48053;BME280;33824;51.600;5.718;2023-04-08T02:56:30;102103.03;;;10.47;97.42
48053;BME280;33824;51.600;5.718;2023-04-08T02:58:55;102096.72;;;10.48;97.29
48053;BME280;33824;51.600;5.718;2023-04-08T03:01:21;102103.44;;;10.43;97.22
48053;BME280;33824;51.600;5.718;2023-04-08T03:03:46;102108.38;;;10.38;97.14
48053;BME280;33824;51.600;5.718;2023-04-08T03:06:12;102109.34;;;10.37;97.53
48053;BME280;33824;51.600;5.718;2023-04-08T03:08:37;102107.81;;;10.34;97.41
48053;BME280;33824;51.600;5.718;2023-04-08T03:11:03;102103.75;;;10.30;97.48
48053;BME280;33824;51.600;5.718;2023-04-08T03:13:28;102100.38;;;10.28;97.68
48053;BME280;33824;51.600;5.718;2023-04-08T03:15:56;102112.00;;;10.27;97.62
48053;BME280;33824;51.600;5.718;2023-04-08T03:18:21;102108.66;;;10.25;97.72
48053;BME280;33824;51.600;5.718;2023-04-08T03:20:47;102114.28;;;10.22;97.33
48053;BME280;33824;51.600;5.718;2023-04-08T03:23:14;102106.69;;;10.18;97.41
48053;BME280;33824;51.600;5.718;2023-04-08T03:25:42;102111.34;;;10.16;97.53
48053;BME280;33824;51.600;5.718;2023-04-08T03:28:07;102102.44;;;10.05;97.26
48053;BME280;33824;51.600;5.718;2023-04-08T03:30:33;102102.75;;;9.93;97.40
48053;BME280;33824;51.600;5.718;2023-04-08T03:32:58;102110.72;;;9.83;97.40
48053;BME280;33824;51.600;5.718;2023-04-08T03:35:24;102109.72;;;9.75;97.14
48053;BME280;33824;51.600;5.718;2023-04-08T03:37:50;102101.31;;;9.70;97.57
48053;BME280;33824;51.600;5.718;2023-04-08T03:40:15;102108.59;;;9.68;97.76
48053;BME280;33824;51.600;5.718;2023-04-08T03:42:41;102115.88;;;9.66;97.61
48053;BME280;33824;51.600;5.718;2023-04-08T03:45:07;102112.50;;;9.63;97.55
48053;BME280;33824;51.600;5.718;2023-04-08T03:47:32;102125.97;;;9.62;97.78
48053;BME280;33824;51.600;5.718;2023-04-08T03:49:58;102123.03;;;9.65;98.14
48053;BME280;33824;51.600;5.718;2023-04-08T03:52:24;102120.66;;;9.72;98.57
48053;BME280;33824;51.600;5.718;2023-04-08T03:54:49;102127.81;;;9.81;98.85
48053;BME280;33824;51.600;5.718;2023-04-08T03:57:15;102122.22;;;9.93;98.77
48053;BME280;33824;51.600;5.718;2023-04-08T03:59:41;102132.06;;;10.02;98.87
48053;BME280;33824;51.600;5.718;2023-04-08T04:02:06;102125.75;;;10.13;98.46
48053;BME280;33824;51.600;5.718;2023-04-08T04:04:32;102125.06;;;10.11;98.41
48053;BME280;33824;51.600;5.718;2023-04-08T04:06:58;102128.97;;;10.07;98.38
48053;BME280;33824;51.600;5.718;2023-04-08T04:09:23;102127.41;;;10.04;98.39
48053;BME280;33824;51.600;5.718;2023-04-08T04:11:49;102129.53;;;10.10;98.55
48053;BME280;33824;51.600;5.718;2023-04-08T04:14:15;102136.16;;;10.16;98.27
48053;BME280;33824;51.600;5.718;2023-04-08T04:16:40;102138.28;;;10.22;98.60
48053;BME280;33824;51.600;5.718;2023-04-08T04:19:06;102137.00;;;10.26;98.35
48053;BME280;33824;51.600;5.718;2023-04-08T04:21:31;102137.41;;;10.31;98.33
48053;BME280;33824;51.600;5.718;2023-04-08T04:23:57;102143.31;;;10.25;97.96
48053;BME280;33824;51.600;5.718;2023-04-08T04:26:25;102144.00;;;10.27;98.12
48053;BME280;33824;51.600;5.718;2023-04-08T04:28:51;102141.91;;;10.21;97.85
48053;BME280;33824;51.600;5.718;2023-04-08T04:31:21;102148.88;;;10.12;97.85
48053;BME280;33824;51.600;5.718;2023-04-08T04:33:47;102152.53;;;10.11;98.14
48053;BME280;33824;51.600;5.718;2023-04-08T04:36:13;102152.84;;;10.18;98.52
48053;BME280;33824;51.600;5.718;2023-04-08T04:38:39;102159.44;;;10.24;98.45
48053;BME280;33824;51.600;5.718;2023-04-08T04:41:05;102166.03;;;10.29;98.52
48053;BME280;33824;51.600;5.718;2023-04-08T04:43:31;102168.13;;;10.35;98.64
48053;BME280;33824;51.600;5.718;2023-04-08T04:45:56;102157.75;;;10.32;98.07
48053;BME280;33824;51.600;5.718;2023-04-08T04:48:22;102167.03;;;10.28;98.16
48053;BME280;33824;51.600;5.718;2023-04-08T04:51:00;102166.47;;;10.15;97.78
48053;BME280;33824;51.600;5.718;2023-04-08T04:53:28;102165.72;;;10.13;97.59
48053;BME280;33824;51.600;5.718;2023-04-08T04:55:53;102175.53;;;10.03;97.52
48053;BME280;33824;51.600;5.718;2023-04-08T04:58:19;102172.72;;;9.95;97.48
48053;BME280;33824;51.600;5.718;2023-04-08T05:00:45;102178.31;;;9.92;97.79
48053;BME280;33824;51.600;5.718;2023-04-08T05:03:11;102177.34;;;9.93;97.82
48053;BME280;33824;51.600;5.718;2023-04-08T05:05:37;102180.69;;;9.95;97.90
48053;BME280;33824;51.600;5.718;2023-04-08T05:08:05;102187.00;;;9.94;98.01
48053;BME280;33824;51.600;5.718;2023-04-08T05:10:31;102192.63;;;9.91;97.97
48053;BME280;33824;51.600;5.718;2023-04-08T05:12:57;102191.75;;;9.90;98.02
48053;BME280;33824;51.600;5.718;2023-04-08T05:15:22;102185.34;;;9.93;98.27
48053;BME280;33824;51.600;5.718;2023-04-08T05:17:48;102192.91;;;9.97;98.16
48053;BME280;33824;51.600;5.718;2023-04-08T05:20:13;102198.78;;;10.01;98.39
48053;BME280;33824;51.600;5.718;2023-04-08T05:22:39;102197.53;;;9.95;98.08
48053;BME280;33824;51.600;5.718;2023-04-08T05:25:07;102196.00;;;9.93;98.43
48053;BME280;33824;51.600;5.718;2023-04-08T05:27:32;102192.50;;;10.02;98.64
48053;BME280;33824;51.600;5.718;2023-04-08T05:29:58;102199.22;;;9.96;98.30
48053;BME280;33824;51.600;5.718;2023-04-08T05:32:24;102202.00;;;9.85;98.23
48053;BME280;33824;51.600;5.718;2023-04-08T05:34:49;102201.41;;;9.72;98.31
48053;BME280;33824;51.600;5.718;2023-04-08T05:37:15;102200.53;;;9.62;98.89
48053;BME280;33824;51.600;5.718;2023-04-08T05:39:40;102201.22;;;9.54;99.09
48053;BME280;33824;51.600;5.718;2023-04-08T05:42:07;102206.53;;;9.54;99.00
48053;BME280;33824;51.600;5.718;2023-04-08T05:44:34;102209.59;;;9.50;98.84
48053;BME280;33824;51.600;5.718;2023-04-08T05:46:59;102211.22;;;9.41;98.74
48053;BME280;33824;51.600;5.718;2023-04-08T05:49:25;102214.66;;;9.32;99.28
48053;BME280;33824;51.600;5.718;2023-04-08T05:51:51;102217.22;;;9.34;98.97
48053;BME280;33824;51.600;5.718;2023-04-08T05:54:16;102224.63;;;9.30;99.07
48053;BME280;33824;51.600;5.718;2023-04-08T05:56:42;102218.72;;;9.27;99.04
48053;BME280;33824;51.600;5.718;2023-04-08T05:59:10;102222.25;;;9.27;99.37
48053;BME280;33824;51.600;5.718;2023-04-08T06:01:36;102228.97;;;9.31;100.00
48053;BME280;33824;51.600;5.718;2023-04-08T06:04:01;102233.91;;;9.36;100.00
48053;BME280;33824;51.600;5.718;2023-04-08T06:06:27;102234.22;;;9.42;100.00
48053;BME280;33824;51.600;5.718;2023-04-08T06:08:52;102245.06;;;9.50;100.00
48053;BME280;33824;51.600;5.718;2023-04-08T06:11:18;102230.34;;;9.56;100.00
48053;BME280;33824;51.600;5.718;2023-04-08T06:13:44;102224.91;;;9.57;100.00
48053;BME280;33824;51.600;5.718;2023-04-08T06:16:10;102227.16;;;9.62;99.95
48053;BME280;33824;51.600;5.718;2023-04-08T06:18:36;102234.16;;;9.63;99.68
48053;BME280;33824;51.600;5.718;2023-04-08T06:21:02;102231.94;;;9.68;99.72
48053;BME280;33824;51.600;5.718;2023-04-08T06:23:28;102236.03;;;9.82;100.00
48053;BME280;33824;51.600;5.718;2023-04-08T06:25:53;102238.56;;;9.74;99.34
48053;BME280;33824;51.600;5.718;2023-04-08T06:28:19;102239.81;;;9.70;99.78
48053;BME280;33824;51.600;5.718;2023-04-08T06:30:44;102242.66;;;9.78;99.36
48053;BME280;33824;51.600;5.718;2023-04-08T06:33:10;102245.16;;;9.79;99.39
48053;BME280;33824;51.600;5.718;2023-04-08T06:35:35;102241.88;;;9.96;99.77
48053;BME280;33824;51.600;5.718;2023-04-08T06:38:02;102251.00;;;10.13;99.72
48053;BME280;33824;51.600;5.718;2023-04-08T06:40:28;102260.59;;;10.25;99.55
48053;BME280;33824;51.600;5.718;2023-04-08T06:42:53;102258.22;;;10.32;98.94
48053;BME280;33824;51.600;5.718;2023-04-08T06:45:19;102263.16;;;10.27;98.59
48053;BME280;33824;51.600;5.718;2023-04-08T06:47:44;102260.88;;;10.22;98.15
48053;BME280;33824;51.600;5.718;2023-04-08T06:50:10;102269.56;;;10.15;97.40
48053;BME280;33824;51.600;5.718;2023-04-08T06:52:35;102271.31;;;10.04;97.19
48053;BME280;33824;51.600;5.718;2023-04-08T06:55:01;102270.63;;;10.02;97.95
48053;BME280;33824;51.600;5.718;2023-04-08T06:57:27;102276.25;;;10.09;97.88
48053;BME280;33824;51.600;5.718;2023-04-08T06:59:53;102274.31;;;10.11;97.92
48053;BME280;33824;51.600;5.718;2023-04-08T07:02:18;102273.28;;;10.12;97.96
48053;BME280;33824;51.600;5.718;2023-04-08T07:04:44;102279.34;;;10.14;97.70
48053;BME280;33824;51.600;5.718;2023-04-08T07:07:09;102281.91;;;10.16;97.97
48053;BME280;33824;51.600;5.718;2023-04-08T07:09:35;102289.66;;;10.19;97.64
48053;BME280;33824;51.600;5.718;2023-04-08T07:12:02;102288.78;;;10.18;97.49
48053;BME280;33824;51.600;5.718;2023-04-08T07:14:28;102292.09;;;10.10;96.97
48053;BME280;33824;51.600;5.718;2023-04-08T07:16:54;102300.78;;;10.03;97.09
48053;BME280;33824;51.600;5.718;2023-04-08T07:19:21;102299.47;;;9.88;97.13
48053;BME280;33824;51.600;5.718;2023-04-08T07:21:48;102308.91;;;9.71;97.65
48053;BME280;33824;51.600;5.718;2023-04-08T07:24:14;102313.38;;;9.71;97.88
48053;BME280;33824;51.600;5.718;2023-04-08T07:26:43;102306.63;;;9.67;98.21
48053;BME280;33824;51.600;5.718;2023-04-08T07:29:09;102313.38;;;9.71;98.21
48053;BME280;33824;51.600;5.718;2023-04-08T07:31:34;102320.69;;;9.69;98.38
48053;BME280;33824;51.600;5.718;2023-04-08T07:34:00;102321.38;;;9.71;98.46
48053;BME280;33824;51.600;5.718;2023-04-08T07:36:26;102327.44;;;9.73;98.66
48053;BME280;33824;51.600;5.718;2023-04-08T07:38:52;102331.84;;;9.62;99.12
48053;BME280;33824;51.600;5.718;2023-04-08T07:41:18;102330.88;;;9.63;99.19
48053;BME280;33824;51.600;5.718;2023-04-08T07:43:43;102322.19;;;9.61;99.50
48053;BME280;33824;51.600;5.718;2023-04-08T07:46:09;102323.22;;;9.70;99.49
48053;BME280;33824;51.600;5.718;2023-04-08T07:48:35;102327.28;;;9.74;99.34
48053;BME280;33824;51.600;5.718;2023-04-08T07:51:05;102331.53;;;9.77;99.23
48053;BME280;33824;51.600;5.718;2023-04-08T07:53:31;102332.38;;;9.77;99.08
48053;BME280;33824;51.600;5.718;2023-04-08T07:55:57;102346.53;;;9.78;99.00
48053;BME280;33824;51.600;5.718;2023-04-08T07:58:23;102341.63;;;9.83;98.70
48053;BME280;33824;51.600;5.718;2023-04-08T08:00:49;102341.34;;;9.86;98.81
48053;BME280;33824;51.600;5.718;2023-04-08T08:03:15;102341.13;;;9.89;98.38
48053;BME280;33824;51.600;5.718;2023-04-08T08:05:41;102341.13;;;9.89;98.96
48053;BME280;33824;51.600;5.718;2023-04-08T08:08:06;102337.53;;;10.09;99.43
48053;BME280;33824;51.600;5.718;2023-04-08T08:10:32;102330.31;;;10.21;99.15
48053;BME280;33824;51.600;5.718;2023-04-08T08:12:58;102337.22;;;10.23;98.71
48053;BME280;33824;51.600;5.718;2023-04-08T08:15:23;102340.59;;;10.25;98.65
48053;BME280;33824;51.600;5.718;2023-04-08T08:17:49;102346.88;;;10.24;98.78
48053;BME280;33824;51.600;5.718;2023-04-08T08:20:15;102350.84;;;10.39;98.88
48053;BME280;33824;51.600;5.718;2023-04-08T08:22:41;102345.97;;;10.54;98.25
48053;BME280;33824;51.600;5.718;2023-04-08T08:25:06;102349.06;;;10.49;97.42
48053;BME280;33824;51.600;5.718;2023-04-08T08:27:34;102352.09;;;10.35;97.16
48053;BME280;33824;51.600;5.718;2023-04-08T08:29:59;102358.72;;;10.41;97.36
48053;BME280;33824;51.600;5.718;2023-04-08T08:32:25;102356.38;;;10.57;97.60
48053;BME280;33824;51.600;5.718;2023-04-08T08:34:50;102357.94;;;10.59;97.05
48053;BME280;33824;51.600;5.718;2023-04-08T08:37:16;102360.31;;;10.63;96.93
48053;BME280;33824;51.600;5.718;2023-04-08T08:39:41;102364.34;;;10.47;96.36
48053;BME280;33824;51.600;5.718;2023-04-08T08:42:23;102371.69;;;10.15;95.83
48053;BME280;33824;51.600;5.718;2023-04-08T08:44:49;102382.56;;;10.33;96.68
48053;BME280;33824;51.600;5.718;2023-04-08T08:47:15;102377.00;;;10.45;96.58
48053;BME280;33824;51.600;5.718;2023-04-08T08:49:41;102384.16;;;10.54;96.48
48053;BME280;33824;51.600;5.718;2023-04-08T08:52:07;102379.66;;;10.45;95.58
48053;BME280;33824;51.600;5.718;2023-04-08T08:54:32;102375.59;;;10.51;95.87
48053;BME280;33824;51.600;5.718;2023-04-08T08:56:58;102376.72;;;10.58;95.51
48053;BME280;33824;51.600;5.718;2023-04-08T08:59:24;102384.19;;;10.64;95.11
48053;BME280;33824;51.600;5.718;2023-04-08T09:01:49;102381.16;;;10.97;96.19
48053;BME280;33824;51.600;5.718;2023-04-08T09:04:17;102383.56;;;11.10;95.20
48053;BME280;33824;51.600;5.718;2023-04-08T09:06:45;102382.41;;;11.32;95.63
48053;BME280;33824;51.600;5.718;2023-04-08T09:09:12;102377.34;;;11.48;95.16
48053;BME280;33824;51.600;5.718;2023-04-08T09:11:42;102375.53;;;11.48;94.48
48053;BME280;33824;51.600;5.718;2023-04-08T09:14:21;102378.59;;;11.53;93.83
48053;BME280;33824;51.600;5.718;2023-04-08T09:16:47;102385.63;;;11.64;93.20
48053;BME280;33824;51.600;5.718;2023-04-08T09:19:13;102394.03;;;11.69;92.03
48053;BME280;33824;51.600;5.718;2023-04-08T09:21:39;102387.84;;;11.69;89.82
48053;BME280;33824;51.600;5.718;2023-04-08T09:24:09;102386.47;;;11.74;90.76
48053;BME280;33824;51.600;5.718;2023-04-08T09:26:36;102383.88;;;11.92;91.17
48053;BME280;33824;51.600;5.718;2023-04-08T09:29:09;102391.34;;;11.88;90.46
48053;BME280;33824;51.600;5.718;2023-04-08T09:31:36;102398.81;;;11.85;91.01
48053;BME280;33824;51.600;5.718;2023-04-08T09:34:24;102402.50;;;11.74;91.59
48053;BME280;33824;51.600;5.718;2023-04-08T09:36:50;102404.25;;;12.02;91.73
48053;BME280;33824;51.600;5.718;2023-04-08T09:39:18;102409.25;;;11.78;90.47
48053;BME280;33824;51.600;5.718;2023-04-08T09:41:47;102410.38;;;11.76;90.27
48053;BME280;33824;51.600;5.718;2023-04-08T09:44:14;102414.19;;;11.73;89.43
48053;BME280;33824;51.600;5.718;2023-04-08T09:49:12;102416.63;;;12.03;89.24
48053;BME280;33824;51.600;5.718;2023-04-08T09:51:48;102413.59;;;12.26;88.87
48053;BME280;33824;51.600;5.718;2023-04-08T09:54:20;102418.00;;;12.54;87.78
48053;BME280;33824;51.600;5.718;2023-04-08T09:57:00;102414.50;;;12.07;85.45
48053;BME280;33824;51.600;5.718;2023-04-08T09:59:29;102422.59;;;11.69;86.35
48053;BME280;33824;51.600;5.718;2023-04-08T10:02:00;102407.31;;;12.17;88.58
48053;BME280;33824;51.600;5.718;2023-04-08T10:04:29;102409.41;;;12.50;87.90
48053;BME280;33824;51.600;5.718;2023-04-08T10:07:01;102401.31;;;12.33;86.22
48053;BME280;33824;51.600;5.718;2023-04-08T10:09:28;102406.09;;;12.39;84.61
48053;BME280;33824;51.600;5.718;2023-04-08T10:11:54;102400.34;;;12.61;84.30
48053;BME280;33824;51.600;5.718;2023-04-08T10:14:20;102397.34;;;13.09;84.54
48053;BME280;33824;51.600;5.718;2023-04-08T10:16:46;102388.03;;;13.74;84.78
48053;BME280;33824;51.600;5.718;2023-04-08T10:19:37;102392.91;;;13.35;80.54
48053;BME280;33824;51.600;5.718;2023-04-08T10:22:44;102384.53;;;12.68;81.92
48053;BME280;33824;51.600;5.718;2023-04-08T10:30:44;102384.59;;;13.21;81.10
48053;BME280;33824;51.600;5.718;2023-04-08T10:35:49;102383.38;;;13.15;82.80
48053;BME280;33824;51.600;5.718;2023-04-08T10:38:16;102385.34;;;13.13;80.70
48053;BME280;33824;51.600;5.718;2023-04-08T10:40:43;102376.56;;;13.21;81.25
48053;BME280;33824;51.600;5.718;2023-04-08T10:43:10;102379.84;;;13.32;81.31
48053;BME280;33824;51.600;5.718;2023-04-08T10:45:39;102378.97;;;13.50;80.58
48053;BME280;33824;51.600;5.718;2023-04-08T10:48:19;102384.06;;;13.35;78.64
48053;BME280;33824;51.600;5.718;2023-04-08T10:51:00;102381.72;;;13.58;79.66
48053;BME280;33824;51.600;5.718;2023-04-08T10:55:52;102371.22;;;13.90;79.41
48053;BME280;33824;51.600;5.718;2023-04-08T10:58:18;102376.72;;;14.14;78.60
48053;BME280;33824;51.600;5.718;2023-04-08T11:00:43;102378.41;;;13.64;77.47
48053;BME280;33824;51.600;5.718;2023-04-08T11:03:09;102377.41;;;13.65;77.39
48053;BME280;33824;51.600;5.718;2023-04-08T11:05:37;102375.91;;;13.44;76.20
48053;BME280;33824;51.600;5.718;2023-04-08T11:08:04;102387.16;;;13.48;76.14
48053;BME280;33824;51.600;5.718;2023-04-08T11:10:30;102385.19;;;13.32;75.80
48053;BME280;33824;51.600;5.718;2023-04-08T11:13:01;102384.09;;;13.61;75.97
48053;BME280;33824;51.600;5.718;2023-04-08T11:15:29;102383.56;;;13.83;75.44
48053;BME280;33824;51.600;5.718;2023-04-08T11:17:55;102378.50;;;14.06;75.36
48053;BME280;33824;51.600;5.718;2023-04-08T11:20:21;102378.94;;;14.19;73.91
48053;BME280;33824;51.600;5.718;2023-04-08T11:22:47;102371.25;;;14.32;74.65
48053;BME280;33824;51.600;5.718;2023-04-08T11:25:12;102367.34;;;14.52;74.88
48053;BME280;33824;51.600;5.718;2023-04-08T11:27:38;102362.00;;;14.60;73.81
48053;BME280;33824;51.600;5.718;2023-04-08T11:30:06;102366.25;;;14.79;73.71
48053;BME280;33824;51.600;5.718;2023-04-08T11:32:34;102356.66;;;14.68;71.74
48053;BME280;33824;51.600;5.718;2023-04-08T11:35:04;102353.63;;;14.71;71.76
48053;BME280;33824;51.600;5.718;2023-04-08T11:37:37;102358.31;;;14.69;71.19
48053;BME280;33824;51.600;5.718;2023-04-08T11:40:08;102357.19;;;14.88;71.38
48053;BME280;33824;51.600;5.718;2023-04-08T11:42:34;102355.88;;;15.24;71.88
48053;BME280;33824;51.600;5.718;2023-04-08T11:45:00;102343.91;;;15.75;71.76
48053;BME280;33824;51.600;5.718;2023-04-08T11:47:32;102347.72;;;16.05;70.76
48053;BME280;33824;51.600;5.718;2023-04-08T11:49:58;102355.63;;;15.91;68.48
48053;BME280;33824;51.600;5.718;2023-04-08T11:52:43;102356.53;;;15.26;67.29
48053;BME280;33824;51.600;5.718;2023-04-08T11:55:31;102357.19;;;15.45;67.51
48053;BME280;33824;51.600;5.718;2023-04-08T11:58:03;102349.09;;;15.93;67.87
48053;BME280;33824;51.600;5.718;2023-04-08T12:00:28;102356.97;;;16.03;64.98
48053;BME280;33824;51.600;5.718;2023-04-08T12:02:55;102348.06;;;15.94;66.59
48053;BME280;33824;51.600;5.718;2023-04-08T12:05:21;102348.84;;;16.19;66.99
48053;BME280;33824;51.600;5.718;2023-04-08T12:07:47;102346.50;;;16.55;66.58
48053;BME280;33824;51.600;5.718;2023-04-08T12:10:12;102351.81;;;16.32;63.37
48053;BME280;33824;51.600;5.718;2023-04-08T12:12:39;102340.50;;;16.37;64.93
48053;BME280;33824;51.600;5.718;2023-04-08T12:15:05;102347.16;;;16.18;63.21
48053;BME280;33824;51.600;5.718;2023-04-08T12:17:33;102345.81;;;16.61;65.46
48053;BME280;33824;51.600;5.718;2023-04-08T12:19:58;102343.97;;;16.84;63.49
48053;BME280;33824;51.600;5.718;2023-04-08T12:22:25;102341.78;;;16.57;63.12
48053;BME280;33824;51.600;5.718;2023-04-08T12:24:50;102343.88;;;16.39;61.93
48053;BME280;33824;51.600;5.718;2023-04-08T12:27:16;102340.53;;;16.28;62.55
48053;BME280;33824;51.600;5.718;2023-04-08T12:29:42;102334.06;;;16.15;62.85
48053;BME280;33824;51.600;5.718;2023-04-08T12:32:08;102331.22;;;16.08;62.11
48053;BME280;33824;51.600;5.718;2023-04-08T12:34:33;102335.66;;;15.93;61.93
48053;BME280;33824;51.600;5.718;2023-04-08T12:36:59;102335.31;;;15.96;61.62
48053;BME280;33824;51.600;5.718;2023-04-08T12:39:24;102340.59;;;16.20;62.73
48053;BME280;33824;51.600;5.718;2023-04-08T12:41:50;102347.56;;;16.38;61.69
48053;BME280;33824;51.600;5.718;2023-04-08T12:44:16;102332.50;;;16.51;61.34
48053;BME280;33824;51.600;5.718;2023-04-08T12:46:42;102336.72;;;16.54;60.39
48053;BME280;33824;51.600;5.718;2023-04-08T12:49:07;102341.06;;;16.32;59.09
48053;BME280;33824;51.600;5.718;2023-04-08T12:51:34;102336.03;;;16.21;58.26
48053;BME280;33824;51.600;5.718;2023-04-08T12:54:00;102329.91;;;16.04;55.63
48053;BME280;33824;51.600;5.718;2023-04-08T12:56:28;102332.13;;;15.93;56.40
48053;BME280;33824;51.600;5.718;2023-04-08T12:58:53;102340.94;;;15.62;54.84
48053;BME280;33824;51.600;5.718;2023-04-08T13:01:20;102326.63;;;15.37;52.70
48053;BME280;33824;51.600;5.718;2023-04-08T13:03:46;102337.72;;;15.18;52.26
48053;BME280;33824;51.600;5.718;2023-04-08T13:06:12;102334.53;;;15.15;52.36